sensor_id;sensor_type;location;lat;lon;timestamp;pressure;altitude;pressure_sealevel;temperature;humidity
46682;BME280;34101;53.430;-2.224;2022-09-06T14:25:46;158097.06;;;22.58;63.61
46682;BME280;34101;53.430;-2.224;2022-09-06T14:28:13;158067.35;;;22.46;64.17
46682;BME280;34101;53.430;-2.224;2022-09-06T14:30:40;158069.79;;;22.47;63.16
46682;BME280;34101;53.430;-2.224;2022-09-06T14:33:08;158099.42;;;22.59;63.69
46682;BME280;34101;53.430;-2.224;2022-09-06T14:35:36;158064.58;;;22.45;62.81
46682;BME280;34101;53.430;-2.224;2022-09-06T14:38:04;158068.25;;;22.47;63.10
46682;BME280;34101;53.430;-2.224;2022-09-06T14:40:33;158121.88;;;22.68;62.66
46682;BME280;34101;53.430;-2.224;2022-09-06T14:43:01;158107.96;;;22.63;61.80
46682;BME280;34101;53.430;-2.224;2022-09-06T14:45:29;158082.16;;;22.52;62.39
46682;BME280;34101;53.430;-2.224;2022-09-06T14:47:56;158141.82;;;22.76;61.91
46682;BME280;34101;53.430;-2.224;2022-09-06T14:50:23;158151.92;;;22.80;62.94
46682;BME280;34101;53.430;-2.224;2022-09-06T14:52:50;158102.67;;;22.60;60.89
46682;BME280;34101;53.430;-2.224;2022-09-06T14:55:18;158097.38;;;22.58;60.47
46682;BME280;34101;53.430;-2.224;2022-09-06T14:57:46;158133.03;;;22.73;61.18
46682;BME280;34101;53.430;-2.224;2022-09-06T15:00:13;158125.71;;;22.70;60.48
46682;BME280;34101;53.430;-2.224;2022-09-06T15:02:40;158106.09;;;22.62;60.31
46682;BME280;34101;53.430;-2.224;2022-09-06T15:05:08;158065.48;;;22.46;60.43
46682;BME280;34101;53.430;-2.224;2022-09-06T15:07:35;158089.16;;;22.55;60.90
46682;BME280;34101;53.430;-2.224;2022-09-06T15:10:03;158060.76;;;22.44;60.71
46682;BME280;34101;53.430;-2.224;2022-09-06T15:12:31;158041.63;;;22.36;60.95
46682;BME280;34101;53.430;-2.224;2022-09-06T15:14:58;158049.20;;;22.39;61.56
46682;BME280;34101;53.430;-2.224;2022-09-06T15:17:25;158038.87;;;22.35;62.22
46682;BME280;34101;53.430;-2.224;2022-09-06T15:19:53;158042.69;;;22.36;62.26
46682;BME280;34101;53.430;-2.224;2022-09-06T15:22:20;158036.02;;;22.34;62.34
46682;BME280;34101;53.430;-2.224;2022-09-06T15:24:47;158035.45;;;22.34;63.22
46682;BME280;34101;53.430;-2.224;2022-09-06T15:27:15;158065.80;;;22.46;62.50
46682;BME280;34101;53.430;-2.224;2022-09-06T15:29:42;158090.30;;;22.55;62.70
46682;BME280;34101;53.430;-2.224;2022-09-06T15:32:10;158067.92;;;22.47;63.24
46682;BME280;34101;53.430;-2.224;2022-09-06T15:34:37;158054.74;;;22.41;63.31
46682;BME280;34101;53.430;-2.224;2022-09-06T15:37:05;158084.68;;;22.53;63.83
46682;BME280;34101;53.430;-2.224;2022-09-06T15:39:32;158089.98;;;22.55;63.51
46682;BME280;34101;53.430;-2.224;2022-09-06T15:41:59;158073.21;;;22.49;63.29
46682;BME280;34101;53.430;-2.224;2022-09-06T15:44:27;158058.40;;;22.43;63.47
46682;BME280;34101;53.430;-2.224;2022-09-06T15:46:56;158023.57;;;22.29;64.79
46682;BME280;34101;53.430;-2.224;2022-09-06T15:49:26;158018.93;;;22.27;64.18
46682;BME280;34101;53.430;-2.224;2022-09-06T15:51:54;158050.18;;;22.39;64.58
46682;BME280;34101;53.430;-2.224;2022-09-06T15:54:22;158035.61;;;22.34;63.85
46682;BME280;34101;53.430;-2.224;2022-09-06T15:56:49;158023.73;;;22.29;63.24
46682;BME280;34101;53.430;-2.224;2022-09-06T15:59:16;157979.38;;;22.11;63.11
46682;BME280;34101;53.430;-2.224;2022-09-06T16:01:45;157949.19;;;21.99;63.30
46682;BME280;34101;53.430;-2.224;2022-09-06T16:04:12;157940.89;;;21.96;63.93
46682;BME280;34101;53.430;-2.224;2022-09-06T16:06:40;157951.72;;;22.00;64.24
46682;BME280;34101;53.430;-2.224;2022-09-06T16:09:08;157973.36;;;22.09;64.01
46682;BME280;34101;53.430;-2.224;2022-09-06T16:11:36;157960.34;;;22.03;64.38
46682;BME280;34101;53.430;-2.224;2022-09-06T16:14:05;157927.47;;;21.90;64.04
46682;BME280;34101;53.430;-2.224;2022-09-06T16:16:34;157924.70;;;21.89;64.45
46682;BME280;34101;53.430;-2.224;2022-09-06T16:19:02;157914.21;;;21.85;64.74
46682;BME280;34101;53.430;-2.224;2022-09-06T16:21:31;157919.90;;;21.87;64.19
46682;BME280;34101;53.430;-2.224;2022-09-06T16:24:01;157918.11;;;21.87;64.38
46682;BME280;34101;53.430;-2.224;2022-09-06T16:26:31;157926.90;;;21.90;64.45
46682;BME280;34101;53.430;-2.224;2022-09-06T16:29:01;157922.10;;;21.88;64.16
46682;BME280;34101;53.430;-2.224;2022-09-06T16:31:30;157911.52;;;21.84;64.23
46682;BME280;34101;53.430;-2.224;2022-09-06T16:33:58;157919.98;;;21.87;64.36
46682;BME280;34101;53.430;-2.224;2022-09-06T16:36:25;157907.70;;;21.82;64.67
46682;BME280;34101;53.430;-2.224;2022-09-06T16:38:54;157901.03;;;21.80;64.65
46682;BME280;34101;53.430;-2.224;2022-09-06T16:41:23;157890.53;;;21.76;64.74
46682;BME280;34101;53.430;-2.224;2022-09-06T16:43:51;157810.89;;;21.44;67.26
46682;BME280;34101;53.430;-2.224;2022-09-06T16:46:19;157786.41;;;21.34;67.92
46682;BME280;34101;53.430;-2.224;2022-09-06T16:48:50;157774.70;;;21.29;68.18
46682;BME280;34101;53.430;-2.224;2022-09-06T16:51:19;157698.25;;;20.99;69.13
46682;BME280;34101;53.430;-2.224;2022-09-06T16:53:47;157684.34;;;20.93;69.13
46682;BME280;34101;53.430;-2.224;2022-09-06T16:56:17;157650.51;;;20.79;69.46
46682;BME280;34101;53.430;-2.224;2022-09-06T16:58:50;157574.98;;;20.49;74.18
46682;BME280;34101;53.430;-2.224;2022-09-06T17:01:18;157545.38;;;20.37;76.11
46682;BME280;34101;53.430;-2.224;2022-09-06T17:03:45;157513.19;;;20.24;75.64
46682;BME280;34101;53.430;-2.224;2022-09-06T17:06:12;157494.09;;;20.17;78.59
46682;BME280;34101;53.430;-2.224;2022-09-06T17:08:40;157480.75;;;20.11;77.87
46682;BME280;34101;53.430;-2.224;2022-09-06T17:11:08;157454.66;;;20.01;77.84
46682;BME280;34101;53.430;-2.224;2022-09-06T17:13:36;157458.89;;;20.03;78.52
46682;BME280;34101;53.430;-2.224;2022-09-06T17:16:04;157486.28;;;20.14;78.57
46682;BME280;34101;53.430;-2.224;2022-09-06T17:18:32;157486.36;;;20.14;78.63
46682;BME280;34101;53.430;-2.224;2022-09-06T17:21:00;157474.58;;;20.09;78.24
46682;BME280;34101;53.430;-2.224;2022-09-06T17:23:27;157492.70;;;20.16;78.52
46682;BME280;34101;53.430;-2.224;2022-09-06T17:25:55;157465.07;;;20.05;79.79
46682;BME280;34101;53.430;-2.224;2022-09-06T17:28:23;157411.75;;;19.84;80.39
46682;BME280;34101;53.430;-2.224;2022-09-06T17:30:50;157288.30;;;19.34;87.30
46682;BME280;34101;53.430;-2.224;2022-09-06T17:33:18;157171.07;;;18.87;99.26
46682;BME280;34101;53.430;-2.224;2022-09-06T17:35:46;157058.33;;;18.42;100.00
46682;BME280;34101;53.430;-2.224;2022-09-06T17:38:14;156966.49;;;18.05;100.00
46682;BME280;34101;53.430;-2.224;2022-09-06T17:40:41;156944.48;;;17.96;100.00
46682;BME280;34101;53.430;-2.224;2022-09-06T17:43:09;156913.30;;;17.84;100.00
46682;BME280;34101;53.430;-2.224;2022-09-06T17:45:36;156867.84;;;17.66;100.00
46682;BME280;34101;53.430;-2.224;2022-09-06T17:48:03;156838.78;;;17.54;100.00
46682;BME280;34101;53.430;-2.224;2022-09-06T17:50:31;156869.55;;;17.66;100.00
46682;BME280;34101;53.430;-2.224;2022-09-06T17:52:59;156877.26;;;17.69;100.00
46682;BME280;34101;53.430;-2.224;2022-09-06T17:55:27;156868.98;;;17.66;100.00
46682;BME280;34101;53.430;-2.224;2022-09-06T17:57:54;156854.85;;;17.60;100.00
46682;BME280;34101;53.430;-2.224;2022-09-06T18:00:21;156853.96;;;17.60;100.00
46682;BME280;34101;53.430;-2.224;2022-09-06T18:02:49;156892.44;;;17.76;100.00
46682;BME280;34101;53.430;-2.224;2022-09-06T18:05:17;156927.19;;;17.89;100.00
46682;BME280;34101;53.430;-2.224;2022-09-06T18:07:44;156955.28;;;18.01;100.00
46682;BME280;34101;53.430;-2.224;2022-09-06T18:10:11;156966.41;;;18.05;100.00
46682;BME280;34101;53.430;-2.224;2022-09-06T18:12:38;156946.11;;;17.97;100.00
46682;BME280;34101;53.430;-2.224;2022-09-06T18:15:07;156902.34;;;17.80;100.00
46682;BME280;34101;53.430;-2.224;2022-09-06T18:17:34;156889.84;;;17.75;100.00
46682;BME280;34101;53.430;-2.224;2022-09-06T18:20:02;156883.67;;;17.72;100.00
46682;BME280;34101;53.430;-2.224;2022-09-06T18:22:30;156864.27;;;17.64;100.00
46682;BME280;34101;53.430;-2.224;2022-09-06T18:24:57;156854.28;;;17.60;100.00
46682;BME280;34101;53.430;-2.224;2022-09-06T18:27:24;156840.81;;;17.55;100.00
46682;BME280;34101;53.430;-2.224;2022-09-06T18:29:52;156848.93;;;17.58;100.00
46682;BME280;34101;53.430;-2.224;2022-09-06T18:32:20;156852.58;;;17.60;100.00
46682;BME280;34101;53.430;-2.224;2022-09-06T18:34:47;156845.19;;;17.57;100.00
46682;BME280;34101;53.430;-2.224;2022-09-06T18:37:14;156851.20;;;17.59;100.00
46682;BME280;34101;53.430;-2.224;2022-09-06T18:39:42;156863.78;;;17.64;100.00
46682;BME280;34101;53.430;-2.224;2022-09-06T18:42:09;156867.44;;;17.66;100.00
46682;BME280;34101;53.430;-2.224;2022-09-06T18:44:37;156869.30;;;17.66;100.00
46682;BME280;34101;53.430;-2.224;2022-09-06T18:47:07;156865.00;;;17.65;100.00
46682;BME280;34101;53.430;-2.224;2022-09-06T18:49:34;156861.67;;;17.63;100.00
46682;BME280;34101;53.430;-2.224;2022-09-06T18:52:03;156873.85;;;17.68;100.00
46682;BME280;34101;53.430;-2.224;2022-09-06T18:54:31;156884.97;;;17.73;100.00
46682;BME280;34101;53.430;-2.224;2022-09-06T18:56:59;156887.41;;;17.74;100.00
46682;BME280;34101;53.430;-2.224;2022-09-06T18:59:26;156898.45;;;17.78;100.00
46682;BME280;34101;53.430;-2.224;2022-09-06T19:01:54;156917.04;;;17.85;100.00
46682;BME280;34101;53.430;-2.224;2022-09-06T19:04:21;156934.41;;;17.92;100.00
46682;BME280;34101;53.430;-2.224;2022-09-06T19:06:48;156945.70;;;17.97;100.00
46682;BME280;34101;53.430;-2.224;2022-09-06T19:09:16;156953.49;;;18.00;100.00
46682;BME280;34101;53.430;-2.224;2022-09-06T19:11:43;156947.81;;;17.98;100.00
46682;BME280;34101;53.430;-2.224;2022-09-06T19:14:11;156936.04;;;17.93;100.00
46682;BME280;34101;53.430;-2.224;2022-09-06T19:16:38;156920.37;;;17.87;100.00
46682;BME280;34101;53.430;-2.224;2022-09-06T19:19:07;156909.00;;;17.82;100.00
46682;BME280;34101;53.430;-2.224;2022-09-06T19:21:35;156903.89;;;17.80;100.00
46682;BME280;34101;53.430;-2.224;2022-09-06T19:24:04;156908.84;;;17.82;100.00
46682;BME280;34101;53.430;-2.224;2022-09-06T19:26:33;156908.35;;;17.82;100.00
46682;BME280;34101;53.430;-2.224;2022-09-06T19:29:02;156898.12;;;17.78;100.00
46682;BME280;34101;53.430;-2.224;2022-09-06T19:31:33;156891.47;;;17.75;100.00
46682;BME280;34101;53.430;-2.224;2022-09-06T19:34:01;156881.16;;;17.71;100.00
46682;BME280;34101;53.430;-2.224;2022-09-06T19:36:30;156873.69;;;17.68;100.00
46682;BME280;34101;53.430;-2.224;2022-09-06T19:38:59;156866.30;;;17.65;100.00
46682;BME280;34101;53.430;-2.224;2022-09-06T19:41:27;156862.32;;;17.63;100.00
46682;BME280;34101;53.430;-2.224;2022-09-06T19:43:57;156858.02;;;17.62;100.00
46682;BME280;34101;53.430;-2.224;2022-09-06T19:46:25;156847.14;;;17.57;100.00
46682;BME280;34101;53.430;-2.224;2022-09-06T19:48:53;156849.33;;;17.58;100.00
46682;BME280;34101;53.430;-2.224;2022-09-06T19:51:21;156852.58;;;17.60;100.00
46682;BME280;34101;53.430;-2.224;2022-09-06T19:53:50;156869.22;;;17.66;100.00
46682;BME280;34101;53.430;-2.224;2022-09-06T19:56:19;156893.98;;;17.76;100.00
46682;BME280;34101;53.430;-2.224;2022-09-06T19:58:52;156913.79;;;17.84;100.00
46682;BME280;34101;53.430;-2.224;2022-09-06T20:01:20;156923.78;;;17.88;100.00
46682;BME280;34101;53.430;-2.224;2022-09-06T20:03:47;156921.42;;;17.87;100.00
46682;BME280;34101;53.430;-2.224;2022-09-06T20:06:14;156910.87;;;17.83;100.00
46682;BME280;34101;53.430;-2.224;2022-09-06T20:08:42;156901.45;;;17.79;100.00
46682;BME280;34101;53.430;-2.224;2022-09-06T20:11:10;156889.11;;;17.74;100.00
46682;BME280;34101;53.430;-2.224;2022-09-06T20:13:38;156885.21;;;17.73;100.00
46682;BME280;34101;53.430;-2.224;2022-09-06T20:16:06;156881.80;;;17.71;100.00
46682;BME280;34101;53.430;-2.224;2022-09-06T20:18:34;156879.29;;;17.70;100.00
46682;BME280;34101;53.430;-2.224;2022-09-06T20:21:02;156875.07;;;17.69;100.00
46682;BME280;34101;53.430;-2.224;2022-09-06T20:23:31;156877.50;;;17.70;100.00
46682;BME280;34101;53.430;-2.224;2022-09-06T20:25:58;156870.44;;;17.67;100.00
46682;BME280;34101;53.430;-2.224;2022-09-06T20:28:27;156870.03;;;17.67;100.00
46682;BME280;34101;53.430;-2.224;2022-09-06T20:30:58;156873.20;;;17.68;100.00
46682;BME280;34101;53.430;-2.224;2022-09-06T20:33:26;156873.36;;;17.68;100.00
46682;BME280;34101;53.430;-2.224;2022-09-06T20:35:55;156875.80;;;17.69;100.00
46682;BME280;34101;53.430;-2.224;2022-09-06T20:38:22;156843.97;;;17.56;100.00
46682;BME280;34101;53.430;-2.224;2022-09-06T20:40:57;156845.60;;;17.57;100.00
46682;BME280;34101;53.430;-2.224;2022-09-06T20:43:25;156836.59;;;17.53;100.00
46682;BME280;34101;53.430;-2.224;2022-09-06T20:45:52;156833.42;;;17.52;100.00
46682;BME280;34101;53.430;-2.224;2022-09-06T20:48:19;156846.09;;;17.57;100.00
46682;BME280;34101;53.430;-2.224;2022-09-06T20:50:55;156848.11;;;17.58;100.00
46682;BME280;34101;53.430;-2.224;2022-09-06T20:53:22;156858.26;;;17.62;100.00
46682;BME280;34101;53.430;-2.224;2022-09-06T20:55:55;156874.66;;;17.68;100.00
46682;BME280;34101;53.430;-2.224;2022-09-06T20:58:23;156884.65;;;17.72;100.00
46682;BME280;34101;53.430;-2.224;2022-09-06T21:00:50;156896.09;;;17.77;100.00
46682;BME280;34101;53.430;-2.224;2022-09-06T21:03:18;156905.35;;;17.81;100.00
46682;BME280;34101;53.430;-2.224;2022-09-06T21:05:45;156911.36;;;17.83;100.00
46682;BME280;34101;53.430;-2.224;2022-09-06T21:08:13;156910.22;;;17.83;100.00
46682;BME280;34101;53.430;-2.224;2022-09-06T21:10:40;156916.55;;;17.85;100.00
46682;BME280;34101;53.430;-2.224;2022-09-06T21:13:07;156916.47;;;17.85;100.00
46682;BME280;34101;53.430;-2.224;2022-09-06T21:15:35;156903.48;;;17.80;100.00
46682;BME280;34101;53.430;-2.224;2022-09-06T21:18:03;156899.42;;;17.78;100.00
46682;BME280;34101;53.430;-2.224;2022-09-06T21:20:30;156897.23;;;17.77;100.00
46682;BME280;34101;53.430;-2.224;2022-09-06T21:22:58;156888.79;;;17.74;100.00
46682;BME280;34101;53.430;-2.224;2022-09-06T21:25:26;156876.28;;;17.69;100.00
46682;BME280;34101;53.430;-2.224;2022-09-06T21:27:53;156856.40;;;17.61;100.00
46682;BME280;34101;53.430;-2.224;2022-09-06T21:30:21;156841.62;;;17.55;100.00
46682;BME280;34101;53.430;-2.224;2022-09-06T21:32:51;156826.60;;;17.49;100.00
46682;BME280;34101;53.430;-2.224;2022-09-06T21:35:19;156805.82;;;17.41;100.00
46682;BME280;34101;53.430;-2.224;2022-09-06T21:37:46;156798.68;;;17.38;100.00
46682;BME280;34101;53.430;-2.224;2022-09-06T21:40:13;156780.26;;;17.31;100.00
46682;BME280;34101;53.430;-2.224;2022-09-06T21:42:41;156774.98;;;17.28;100.00
46682;BME280;34101;53.430;-2.224;2022-09-06T21:45:09;156761.75;;;17.23;100.00
46682;BME280;34101;53.430;-2.224;2022-09-06T21:47:36;156754.69;;;17.20;100.00
46682;BME280;34101;53.430;-2.224;2022-09-06T21:50:04;156722.23;;;17.07;100.00
46682;BME280;34101;53.430;-2.224;2022-09-06T21:52:31;156731.07;;;17.11;100.00
46682;BME280;34101;53.430;-2.224;2022-09-06T21:54:59;156716.79;;;17.05;100.00
46682;BME280;34101;53.430;-2.224;2022-09-06T21:57:26;156708.67;;;17.02;100.00
46682;BME280;34101;53.430;-2.224;2022-09-06T21:59:53;156687.74;;;16.93;100.00
46682;BME280;34101;53.430;-2.224;2022-09-06T22:02:21;156693.58;;;16.96;100.00
46682;BME280;34101;53.430;-2.224;2022-09-06T22:04:48;156689.69;;;16.94;100.00
46682;BME280;34101;53.430;-2.224;2022-09-06T22:07:16;156668.91;;;16.86;100.00
46682;BME280;34101;53.430;-2.224;2022-09-06T22:09:43;156671.35;;;16.87;100.00
46682;BME280;34101;53.430;-2.224;2022-09-06T22:12:10;156667.45;;;16.85;100.00
46682;BME280;34101;53.430;-2.224;2022-09-06T22:14:38;156667.69;;;16.85;100.00
46682;BME280;34101;53.430;-2.224;2022-09-06T22:17:05;156662.99;;;16.83;100.00
46682;BME280;34101;53.430;-2.224;2022-09-06T22:19:33;156659.66;;;16.82;100.00
46682;BME280;34101;53.430;-2.224;2022-09-06T22:22:00;156656.82;;;16.81;100.00
46682;BME280;34101;53.430;-2.224;2022-09-06T22:24:28;156651.06;;;16.79;100.00
46682;BME280;34101;53.430;-2.224;2022-09-06T22:26:55;156642.38;;;16.75;100.00
46682;BME280;34101;53.430;-2.224;2022-09-06T22:29:22;156626.23;;;16.69;100.00
46682;BME280;34101;53.430;-2.224;2022-09-06T22:31:50;156626.64;;;16.69;100.00
46682;BME280;34101;53.430;-2.224;2022-09-06T22:34:17;156621.77;;;16.67;100.00
46682;BME280;34101;53.430;-2.224;2022-09-06T22:36:45;156614.47;;;16.64;100.00
46682;BME280;34101;53.430;-2.224;2022-09-06T22:39:12;156623.88;;;16.68;100.00
46682;BME280;34101;53.430;-2.224;2022-09-06T22:41:39;156635.32;;;16.72;100.00
46682;BME280;34101;53.430;-2.224;2022-09-06T22:44:07;156640.67;;;16.75;100.00
46682;BME280;34101;53.430;-2.224;2022-09-06T22:46:35;156652.60;;;16.79;100.00
46682;BME280;34101;53.430;-2.224;2022-09-06T22:49:03;156662.58;;;16.83;100.00
46682;BME280;34101;53.430;-2.224;2022-09-06T22:51:31;156666.07;;;16.85;100.00
46682;BME280;34101;53.430;-2.224;2022-09-06T22:53:58;156673.13;;;16.88;100.00
46682;BME280;34101;53.430;-2.224;2022-09-06T22:56:26;156672.00;;;16.87;100.00
46682;BME280;34101;53.430;-2.224;2022-09-06T22:58:53;156683.52;;;16.92;100.00
46682;BME280;34101;53.430;-2.224;2022-09-06T23:01:20;156705.18;;;17.00;100.00
46682;BME280;34101;53.430;-2.224;2022-09-06T23:03:48;156724.42;;;17.08;100.00
46682;BME280;34101;53.430;-2.224;2022-09-06T23:06:16;156737.32;;;17.13;100.00
46682;BME280;34101;53.430;-2.224;2022-09-06T23:08:43;156749.74;;;17.18;100.00
46682;BME280;34101;53.430;-2.224;2022-09-06T23:11:13;156753.72;;;17.20;100.00
46682;BME280;34101;53.430;-2.224;2022-09-06T23:13:41;156767.03;;;17.25;100.00
46682;BME280;34101;53.430;-2.224;2022-09-06T23:16:11;156757.77;;;17.22;100.00
46682;BME280;34101;53.430;-2.224;2022-09-06T23:18:38;156759.23;;;17.22;100.00
46682;BME280;34101;53.430;-2.224;2022-09-06T23:21:07;156767.92;;;17.26;100.00
46682;BME280;34101;53.430;-2.224;2022-09-06T23:23:36;156764.59;;;17.24;100.00
46682;BME280;34101;53.430;-2.224;2022-09-06T23:26:05;156768.57;;;17.26;100.00
46682;BME280;34101;53.430;-2.224;2022-09-06T23:28:33;156771.57;;;17.27;100.00
46682;BME280;34101;53.430;-2.224;2022-09-06T23:31:01;156773.03;;;17.28;100.00
46682;BME280;34101;53.430;-2.224;2022-09-06T23:33:28;156781.72;;;17.31;100.00
46682;BME280;34101;53.430;-2.224;2022-09-06T23:35:56;156787.56;;;17.33;100.00
46682;BME280;34101;53.430;-2.224;2022-09-06T23:38:23;156791.94;;;17.35;100.00
46682;BME280;34101;53.430;-2.224;2022-09-06T23:40:51;156794.38;;;17.36;100.00
46682;BME280;34101;53.430;-2.224;2022-09-06T23:43:19;156809.31;;;17.42;100.00
46682;BME280;34101;53.430;-2.224;2022-09-06T23:45:46;156807.69;;;17.42;100.00
46682;BME280;34101;53.430;-2.224;2022-09-06T23:48:13;156808.42;;;17.42;100.00
46682;BME280;34101;53.430;-2.224;2022-09-06T23:50:42;156809.48;;;17.42;100.00
46682;BME280;34101;53.430;-2.224;2022-09-06T23:53:10;156807.85;;;17.42;100.00
46682;BME280;34101;53.430;-2.224;2022-09-06T23:55:38;156801.20;;;17.39;100.00
46682;BME280;34101;53.430;-2.224;2022-09-06T23:58:05;156801.03;;;17.39;100.00
